Talmage, CA (95481)

4:36 AM PDT on September 16, 2014 (GMT -0700)
MesoWest Lake Mendocino CA US CDEC | Change Station
CLOSE
Current Station
Personal Weather Station
Location: Ukiah, CA
Elevation: 669 ft
Nearby Weather Stations

Elev 669 ft 39.20 °N, 123.19 °W | Updated 51 minutes ago

Clear
Clear
55 °F
Feels Like 55 °F
N
1
Wind Variable Wind from North
Gusts 0.0 mph

Today
High -- | Low -- °F
--% Chance of Precip.
Yesterday
High -- | Low -- °F
Precip. -- in
6:54 AM 7:19 PM
Last Quarter, 46% visible
Pressure 29.92 in
Visibility 10.0 miles
Clouds Clear
Dew Point 49 °F
Humidity 81%
Rainfall -999.00 in
Snow Depth 0 in , 0 in , 0 in
UV 0 out of 12
Pollen 6.40 out of 12
Air Quality Not available.
Flu Activity Not available.
METAR KUKI 161056Z AUTO 00000KT 10SM CLR 13/08 A2994 RMK AO2 SLP130 T01280083

More Conditions Fewer Conditions

Pressure 29.92 in
Visibility 10.0 miles
Clouds Clear
Dew Point 49 °F
Humidity 81%
Rainfall -999.00 in
Snow Depth 0 in , 0 in , 0 in
UV 0 out of 12
Pollen 6.40 out of 12
Air Quality Not available.
Flu Activity Not available.
METAR KUKI 161056Z AUTO 00000KT 10SM CLR 13/08 A2994 RMK AO2 SLP130 T01280083

More Conditions Fewer Conditions

10-Day Weather Forecast

Almanac

Astronomy

Sep. 16, 2014 Rise Set
Actual Time 6:54 AM PDT 7:19 PM PDT
Civil Twilight 6:28 AM PDT 7:45 PM PDT
Nautical Twilight 5:56 AM PDT 8:17 PM PDT
Astronomical Twilight 5:24 AM PDT 8:49 PM PDT
Moon 12:11 AM PDT 2:45 PM PDT
Length of Visible Light 13h 17m
Length of Day
12h 24m
Tomorrow will be 2m 32s shorter.
Last Quarter, 46% of the Moon is Illuminated
Today
Last Quarter
Sep 24
New
Oct 1
First Quarter
Oct 8
Full
Oct 15
Last Quarter

Today's Extremes

State Highs State Lows

Community

WunderPhotos

Upload Photos

1,753,724 photos uploaded!

WunderBlogs® & News

By Dr. Jeff Masters
Director of Meteorology, Weather Underground
By Kari Strenfel
Meteorologist, Weather Underground
By Christopher C. Burt
Weather Historian, Weather Underground
September 16, 2014
September 16, 2014
September 16, 2014

Nearby

Snow Depth

Station Depth Elevation
Monitor Pass 0 in 8350 ft
Leavitt Lake 0 in 9400 ft
Echo Peak 0 in 7800 ft
Leavitt Meadows 1 in 7200 ft
Forestdale Creek 0 in 8029 ft

Earthquake Activity

City Distance Mag. Time & Date
Covelo, California 43 miles 3.3 1:17 PM PDT
2014-09-14
Cobb, California 28 miles 2.7 11:07 AM PDT
2014-09-14
Minimum magnitude displayed is 2.5.

Coastal Water Temperatures

Place Temperature
Arena Cove, CA 60.1 °F
North Spit, CA 60.1 °F
Point Reyes, CA 62.1 °F
San Francisco, CA 66.0 °F
Richmond, CA 68.0 °F

Nearby Weather Stations